createdAt,value
2024-04-30T00:01:45.223Z,14.40
2024-04-30T00:04:15.642Z,14.40
2024-04-30T00:06:43.114Z,14.40
2024-04-30T00:09:10.520Z,14.40
2024-04-30T00:11:41.661Z,14.40
2024-04-30T00:14:09.186Z,14.30
2024-04-30T00:16:45.708Z,14.30
2024-04-30T00:19:13.117Z,14.00
2024-04-30T00:21:43.213Z,14.20
2024-04-30T00:24:10.981Z,14.20
2024-04-30T00:26:38.366Z,14.60
2024-04-30T00:29:05.802Z,14.40
2024-04-30T00:31:33.270Z,14.30
2024-04-30T00:34:00.824Z,14.50
2024-04-30T00:36:28.236Z,14.40
2024-04-30T00:38:55.777Z,14.40
2024-04-30T00:41:23.195Z,14.40
2024-04-30T00:43:51.064Z,14.50
2024-04-30T00:46:18.582Z,14.00
2024-04-30T00:48:46.261Z,14.20
2024-04-30T00:51:14.199Z,14.20
2024-04-30T00:53:42.469Z,14.30
2024-04-30T00:56:10.532Z,14.20
2024-04-30T00:58:38.280Z,14.00
2024-04-30T01:01:05.961Z,14.20
2024-04-30T01:03:33.580Z,14.10
2024-04-30T01:06:01.016Z,13.90
2024-04-30T01:08:28.365Z,13.90
2024-04-30T01:10:55.743Z,13.80
2024-04-30T01:13:23.334Z,14.10
2024-04-30T01:15:51.514Z,14.30
2024-04-30T01:18:18.959Z,14.20
2024-04-30T01:20:46.392Z,14.10
2024-04-30T01:23:13.734Z,14.10
2024-04-30T01:25:42.104Z,14.10
2024-04-30T01:28:09.598Z,14.00
2024-04-30T01:30:37.036Z,14.40
2024-04-30T01:33:04.823Z,14.50
2024-04-30T01:35:32.313Z,14.30
2024-04-30T01:37:59.690Z,14.30
2024-04-30T01:40:27.036Z,14.40
2024-04-30T01:42:54.396Z,14.90
2024-04-30T01:45:21.761Z,14.80
2024-04-30T01:47:49.188Z,14.90
2024-04-30T01:50:16.610Z,14.90
2024-04-30T01:52:44.016Z,14.80
2024-04-30T01:55:11.529Z,14.90
2024-04-30T01:57:39.233Z,14.90
2024-04-30T02:00:07.159Z,15.10
2024-04-30T02:02:34.707Z,15.10
2024-04-30T02:05:08.013Z,15.10
2024-04-30T02:07:41.166Z,14.90
2024-04-30T02:10:08.710Z,15.10
2024-04-30T02:12:36.099Z,14.90
2024-04-30T02:15:03.583Z,15.10
2024-04-30T02:17:32.614Z,15.10
2024-04-30T02:20:00.530Z,14.70
2024-04-30T02:22:27.939Z,14.90
2024-04-30T02:24:55.305Z,15.20
2024-04-30T02:27:22.679Z,15.20
2024-04-30T02:29:50.030Z,15.30
2024-04-30T02:32:36.325Z,15.00
2024-04-30T02:35:03.883Z,14.80
2024-04-30T02:37:31.400Z,14.90
2024-04-30T02:39:58.886Z,15.00
2024-04-30T02:42:26.360Z,14.80
2024-04-30T02:44:53.764Z,14.90
2024-04-30T02:47:21.348Z,14.70
2024-04-30T02:49:48.746Z,14.90
2024-04-30T02:52:16.178Z,15.00
2024-04-30T02:54:43.502Z,15.10
2024-04-30T02:57:10.845Z,15.00
2024-04-30T02:59:39.347Z,15.20
2024-04-30T03:02:06.749Z,15.00
2024-04-30T03:04:34.125Z,15.20
2024-04-30T03:07:01.624Z,15.30
2024-04-30T03:09:29.031Z,14.90
2024-04-30T03:11:56.771Z,14.80
2024-04-30T03:14:24.138Z,14.90
2024-04-30T03:16:51.956Z,15.10
2024-04-30T03:19:19.376Z,14.70
2024-04-30T03:21:46.806Z,14.50
2024-04-30T03:24:14.214Z,14.40
2024-04-30T03:26:44.596Z,14.80
2024-04-30T03:29:11.962Z,14.70
2024-04-30T03:31:39.437Z,14.60
2024-04-30T03:34:06.930Z,14.50
2024-04-30T03:36:34.322Z,14.20
2024-04-30T03:39:01.758Z,14.30
2024-04-30T03:41:29.211Z,14.30
2024-04-30T03:43:56.581Z,14.00
2024-04-30T03:46:24.026Z,14.00
2024-04-30T03:48:51.477Z,14.00
2024-04-30T03:51:20.035Z,14.20
2024-04-30T03:53:47.921Z,14.20
2024-04-30T03:56:15.587Z,14.20
2024-04-30T03:58:43.155Z,14.30
2024-04-30T04:01:10.771Z,14.30
2024-04-30T04:03:38.320Z,14.40
2024-04-30T04:06:06.345Z,14.40
2024-04-30T04:08:33.730Z,14.20
2024-04-30T04:11:19.782Z,14.00
2024-04-30T04:14:05.747Z,14.00
2024-04-30T04:16:33.314Z,14.00
2024-04-30T04:19:00.813Z,13.80
2024-04-30T04:21:28.239Z,14.00
2024-04-30T04:23:55.622Z,14.00
2024-04-30T04:26:23.049Z,13.90
2024-04-30T04:28:50.413Z,13.50
2024-04-30T04:31:18.241Z,13.20
2024-04-30T04:33:45.639Z,13.10
2024-04-30T04:36:16.254Z,13.00
2024-04-30T04:38:43.792Z,12.70
2024-04-30T04:41:11.242Z,12.90
2024-04-30T04:43:38.794Z,13.20
2024-04-30T04:46:06.223Z,13.40
2024-04-30T04:48:33.681Z,13.40
2024-04-30T04:51:01.111Z,13.60
2024-04-30T04:53:28.499Z,13.70
2024-04-30T04:55:55.839Z,13.80
2024-04-30T04:58:23.305Z,14.10
2024-04-30T05:00:52.028Z,14.50
2024-04-30T05:03:19.521Z,14.20
2024-04-30T05:05:46.861Z,14.50
2024-04-30T05:08:14.436Z,14.50
2024-04-30T05:10:41.909Z,14.50
2024-04-30T05:13:10.768Z,14.50
2024-04-30T05:15:38.179Z,14.50
2024-04-30T05:18:06.088Z,14.60
2024-04-30T05:20:33.518Z,14.60
2024-04-30T05:23:00.919Z,14.60
2024-04-30T05:25:28.373Z,14.90
2024-04-30T05:27:55.760Z,15.10
2024-04-30T05:30:23.220Z,15.10
2024-04-30T05:32:50.671Z,15.10
2024-04-30T05:35:18.075Z,15.20
2024-04-30T05:37:45.606Z,15.10
2024-04-30T05:40:13.438Z,15.20
2024-04-30T05:42:41.378Z,15.20
2024-04-30T05:45:11.245Z,15.30
2024-04-30T05:47:39.858Z,15.40
2024-04-30T05:50:07.499Z,15.60
2024-04-30T05:52:35.031Z,15.90
2024-04-30T05:55:02.539Z,16.00
2024-04-30T05:57:29.932Z,15.90
2024-04-30T05:59:57.362Z,15.60
2024-04-30T06:02:24.737Z,16.00
2024-04-30T06:04:52.151Z,16.30
2024-04-30T06:07:19.608Z,16.50
2024-04-30T06:09:46.956Z,16.40
2024-04-30T06:12:14.355Z,16.30
2024-04-30T06:14:41.769Z,16.50
2024-04-30T06:17:09.122Z,16.80
2024-04-30T06:19:36.624Z,17.10
2024-04-30T06:22:04.209Z,16.80
2024-04-30T06:24:31.646Z,16.80
2024-04-30T06:26:59.022Z,17.30
2024-04-30T06:29:26.373Z,17.30
2024-04-30T06:31:53.793Z,17.10
2024-04-30T06:34:21.172Z,17.30
2024-04-30T06:36:48.579Z,17.30
2024-04-30T06:39:15.945Z,17.40
2024-04-30T06:41:43.318Z,17.40
2024-04-30T06:44:10.665Z,17.50
2024-04-30T06:46:38.118Z,17.70
2024-04-30T06:49:07.412Z,17.80
2024-04-30T06:51:34.892Z,18.00
2024-04-30T06:54:02.295Z,17.80
2024-04-30T06:56:29.767Z,17.70
2024-04-30T06:58:57.188Z,17.80
2024-04-30T07:01:24.650Z,17.80
2024-04-30T07:03:52.015Z,17.50
2024-04-30T07:06:19.499Z,17.60
2024-04-30T07:08:46.906Z,17.90
2024-04-30T07:11:14.355Z,17.50
2024-04-30T07:13:42.880Z,17.60
2024-04-30T07:16:10.340Z,18.00
2024-04-30T07:18:41.038Z,18.20
2024-04-30T07:21:08.468Z,18.20
2024-04-30T07:23:35.898Z,18.60
2024-04-30T07:26:03.367Z,18.90
2024-04-30T07:28:30.875Z,19.80
2024-04-30T07:30:58.315Z,19.50
2024-04-30T07:33:25.717Z,19.90
2024-04-30T07:35:53.138Z,20.50
2024-04-30T07:38:20.493Z,21.00
2024-04-30T07:40:47.978Z,21.10
2024-04-30T07:43:15.453Z,20.80
2024-04-30T07:45:42.851Z,20.70
2024-04-30T07:48:10.287Z,21.00
2024-04-30T07:50:37.672Z,21.60
2024-04-30T07:53:05.202Z,21.50
2024-04-30T07:55:33.312Z,22.00
2024-04-30T07:58:00.726Z,22.80
2024-04-30T08:00:28.089Z,22.50
2024-04-30T08:02:55.557Z,22.80
2024-04-30T08:05:23.013Z,22.00
2024-04-30T08:07:50.410Z,21.50
2024-04-30T08:10:17.914Z,22.10
2024-04-30T08:12:45.607Z,22.50
2024-04-30T08:15:12.979Z,22.90
2024-04-30T08:17:40.548Z,22.70
2024-04-30T08:20:08.563Z,23.20
2024-04-30T08:22:36.044Z,22.80
2024-04-30T08:25:03.497Z,22.40
2024-04-30T08:27:30.841Z,22.20
2024-04-30T08:29:58.219Z,21.80
2024-04-30T08:32:26.347Z,21.90
2024-04-30T08:34:53.757Z,21.60
2024-04-30T08:37:21.154Z,21.80
2024-04-30T08:39:48.557Z,21.40
2024-04-30T08:42:16.405Z,21.20
2024-04-30T08:44:43.964Z,20.80
2024-04-30T08:47:11.695Z,20.80
2024-04-30T08:49:46.927Z,21.40
2024-04-30T08:52:18.977Z,21.60
2024-04-30T08:54:46.391Z,21.40
2024-04-30T08:57:13.846Z,21.50
2024-04-30T08:59:41.710Z,21.40
2024-04-30T09:02:09.629Z,22.00
2024-04-30T09:04:40.071Z,21.70
2024-04-30T09:07:07.767Z,20.80
2024-04-30T09:09:35.149Z,20.80
2024-04-30T09:12:04.078Z,21.70
2024-04-30T09:14:31.484Z,22.30
2024-04-30T09:17:00.103Z,22.30
2024-04-30T09:19:30.150Z,21.80
2024-04-30T09:22:07.507Z,21.80
2024-04-30T09:24:35.134Z,22.00
2024-04-30T09:27:02.469Z,21.90
2024-04-30T09:29:33.714Z,21.90
2024-04-30T09:32:01.054Z,22.10
2024-04-30T09:34:42.312Z,22.30
2024-04-30T09:37:23.137Z,22.50
2024-04-30T09:39:53.319Z,22.10
2024-04-30T09:42:21.877Z,21.80
2024-04-30T09:44:51.316Z,21.80
2024-04-30T09:47:20.127Z,21.90
2024-04-30T09:49:48.761Z,21.80
2024-04-30T09:52:18.114Z,21.60
2024-04-30T09:54:48.037Z,21.80
2024-04-30T09:57:15.801Z,21.40
2024-04-30T09:59:43.226Z,22.10
2024-04-30T10:02:14.054Z,22.00
2024-04-30T10:04:41.459Z,22.10
2024-04-30T10:07:09.170Z,22.20
2024-04-30T10:09:36.576Z,22.80
2024-04-30T10:12:04.053Z,22.10
2024-04-30T10:14:32.366Z,21.70
2024-04-30T10:17:00.630Z,22.40
2024-04-30T10:19:28.962Z,22.70
2024-04-30T10:21:56.424Z,22.60
2024-04-30T10:24:24.331Z,22.80
2024-04-30T10:26:52.454Z,23.20
2024-04-30T10:29:20.000Z,23.20
2024-04-30T10:31:48.697Z,23.30
2024-04-30T10:34:16.619Z,23.00
2024-04-30T10:36:48.590Z,23.00
2024-04-30T10:39:28.639Z,23.30
2024-04-30T10:41:56.127Z,23.80
2024-04-30T10:44:23.748Z,23.80
2024-04-30T10:46:51.263Z,24.20
2024-04-30T10:49:21.831Z,24.30
2024-04-30T10:51:49.406Z,24.20
2024-04-30T10:54:16.886Z,24.60
2024-04-30T10:56:46.613Z,24.80
2024-04-30T10:59:13.968Z,24.80
2024-04-30T11:01:41.322Z,25.60
2024-04-30T11:04:10.235Z,25.30
2024-04-30T11:06:45.183Z,25.10
2024-04-30T11:09:15.318Z,25.70
2024-04-30T11:11:50.549Z,25.90
2024-04-30T11:14:19.489Z,26.40
2024-04-30T11:16:47.939Z,26.30
2024-04-30T11:19:15.887Z,26.30
2024-04-30T11:21:43.522Z,26.10
2024-04-30T11:24:10.988Z,26.30
2024-04-30T11:26:38.457Z,26.60
2024-04-30T11:29:22.585Z,26.20
2024-04-30T11:31:53.337Z,26.60
2024-04-30T11:34:20.753Z,26.80
2024-04-30T11:36:48.133Z,27.20
2024-04-30T11:39:15.526Z,26.80
2024-04-30T11:41:48.934Z,26.80
2024-04-30T11:44:24.462Z,26.90
2024-04-30T11:46:51.844Z,27.30
2024-04-30T11:49:19.262Z,27.70
2024-04-30T11:51:46.625Z,27.70
2024-04-30T11:54:13.991Z,27.70
2024-04-30T11:56:41.401Z,27.60
2024-04-30T11:59:08.770Z,26.60
2024-04-30T12:01:36.171Z,27.20
2024-04-30T12:04:03.561Z,27.40
2024-04-30T12:06:30.944Z,27.50
2024-04-30T12:08:58.349Z,27.50
2024-04-30T12:11:25.912Z,26.70
2024-04-30T12:13:55.226Z,26.70
2024-04-30T12:16:23.214Z,26.60
2024-04-30T12:18:50.598Z,27.00
2024-04-30T12:21:19.356Z,26.80
2024-04-30T12:23:49.123Z,26.90
2024-04-30T12:26:16.996Z,27.30
2024-04-30T12:28:44.838Z,27.40
2024-04-30T12:31:12.317Z,27.20
2024-04-30T12:33:39.839Z,27.40
2024-04-30T12:36:07.399Z,27.60
2024-04-30T12:38:34.901Z,28.00
2024-04-30T12:41:02.255Z,28.10
2024-04-30T12:43:29.637Z,28.00
2024-04-30T12:45:56.982Z,27.70
2024-04-30T12:48:24.485Z,27.80
2024-04-30T12:50:52.086Z,27.90
2024-04-30T12:53:19.657Z,28.40
2024-04-30T12:55:47.164Z,27.90
2024-04-30T12:58:14.596Z,28.60
2024-04-30T13:00:42.025Z,28.40
2024-04-30T13:03:09.441Z,28.40
2024-04-30T13:05:37.824Z,28.90
2024-04-30T13:08:05.591Z,28.10
2024-04-30T13:10:32.994Z,27.90
2024-04-30T13:13:00.442Z,27.90
2024-04-30T13:15:28.635Z,28.20
2024-04-30T13:17:56.118Z,28.20
2024-04-30T13:20:23.509Z,28.50
2024-04-30T13:22:50.924Z,28.30
2024-04-30T13:25:18.395Z,28.30
2024-04-30T13:27:46.633Z,28.10
2024-04-30T13:30:14.332Z,28.50
2024-04-30T13:32:44.073Z,28.90
2024-04-30T13:35:11.788Z,28.60
2024-04-30T13:37:40.185Z,28.90
2024-04-30T13:40:08.181Z,28.70
2024-04-30T13:42:35.654Z,28.70
2024-04-30T13:45:03.070Z,29.10
2024-04-30T13:47:30.492Z,28.70
2024-04-30T13:49:58.085Z,28.40
2024-04-30T13:52:25.568Z,28.10
2024-04-30T13:54:52.996Z,28.60
2024-04-30T13:57:20.365Z,28.40
2024-04-30T13:59:47.717Z,28.70
2024-04-30T14:02:17.767Z,29.00
2024-04-30T14:04:45.647Z,29.20
2024-04-30T14:07:13.085Z,29.20
2024-04-30T14:09:40.750Z,29.20
2024-04-30T14:12:08.347Z,29.50
2024-04-30T14:14:39.182Z,29.20
2024-04-30T14:17:06.767Z,28.50
2024-04-30T14:19:35.158Z,28.60
2024-04-30T14:22:03.095Z,27.80
2024-04-30T14:24:30.533Z,28.20
2024-04-30T14:26:57.890Z,28.80
2024-04-30T14:29:25.370Z,28.80
2024-04-30T14:31:52.864Z,28.60
2024-04-30T14:34:20.317Z,28.50
2024-04-30T14:36:47.862Z,28.40
2024-04-30T14:39:15.323Z,28.60
2024-04-30T14:41:44.234Z,28.40
2024-04-30T14:44:12.448Z,28.80
2024-04-30T14:46:42.957Z,28.00
2024-04-30T14:49:10.689Z,28.20
2024-04-30T14:51:39.669Z,28.50
2024-04-30T14:54:07.847Z,28.60
2024-04-30T14:56:37.079Z,28.30
2024-04-30T14:59:04.693Z,28.20
2024-04-30T15:01:32.429Z,27.80
2024-04-30T15:04:00.377Z,28.00
2024-04-30T15:06:30.681Z,27.90
2024-04-30T15:08:58.177Z,27.90
2024-04-30T15:11:26.204Z,27.70
2024-04-30T15:13:54.148Z,27.50
2024-04-30T15:16:21.749Z,27.40
2024-04-30T15:18:49.470Z,27.50
2024-04-30T15:21:17.051Z,27.10
2024-04-30T15:23:45.144Z,27.40
2024-04-30T15:26:14.924Z,27.40
2024-04-30T15:28:43.234Z,27.20
2024-04-30T15:31:17.696Z,27.10
2024-04-30T15:33:45.211Z,27.20
2024-04-30T15:36:12.939Z,27.30
2024-04-30T15:38:40.980Z,27.10
2024-04-30T15:41:09.088Z,27.00
2024-04-30T15:43:36.766Z,26.70
2024-04-30T15:46:04.854Z,27.00
2024-04-30T15:48:32.519Z,27.00
2024-04-30T15:51:06.444Z,27.10
2024-04-30T15:53:33.996Z,27.10
2024-04-30T15:56:10.230Z,27.10
2024-04-30T15:58:44.925Z,26.60
2024-04-30T16:01:12.598Z,26.60
2024-04-30T16:03:40.100Z,26.60
2024-04-30T16:06:10.922Z,26.70
2024-04-30T16:08:38.367Z,26.50
2024-04-30T16:11:10.315Z,26.80
2024-04-30T16:13:40.257Z,26.60
2024-04-30T16:16:15.617Z,26.70
2024-04-30T16:18:46.785Z,26.70
2024-04-30T16:21:14.956Z,26.00
2024-04-30T16:23:43.000Z,25.70
2024-04-30T16:26:10.401Z,26.20
2024-04-30T16:28:41.607Z,26.20
2024-04-30T16:31:11.109Z,26.20
2024-04-30T16:33:39.564Z,26.10
2024-04-30T16:36:08.091Z,25.80
2024-04-30T16:38:37.831Z,25.70
2024-04-30T16:41:05.326Z,25.50
2024-04-30T16:43:32.718Z,25.70
2024-04-30T16:46:00.216Z,25.60
2024-04-30T16:48:28.448Z,25.20
2024-04-30T16:50:56.014Z,25.30
2024-04-30T16:53:23.371Z,25.70
2024-04-30T16:55:50.720Z,25.90
2024-04-30T16:58:18.329Z,26.00
2024-04-30T17:00:45.871Z,26.10
2024-04-30T17:03:13.466Z,25.90
2024-04-30T17:05:40.939Z,25.80
2024-04-30T17:08:08.509Z,25.70
2024-04-30T17:10:35.925Z,25.30
2024-04-30T17:13:03.523Z,25.30
2024-04-30T17:15:31.191Z,25.50
2024-04-30T17:17:58.619Z,25.50
2024-04-30T17:20:26.237Z,25.60
2024-04-30T17:22:53.635Z,25.50
2024-04-30T17:25:20.996Z,25.40
2024-04-30T17:27:48.411Z,24.90
2024-04-30T17:30:15.884Z,25.00
2024-04-30T17:32:43.524Z,25.10
2024-04-30T17:35:11.002Z,25.30
2024-04-30T17:37:38.357Z,25.30
2024-04-30T17:40:06.247Z,24.90
2024-04-30T17:42:34.496Z,24.60
2024-04-30T17:45:03.038Z,24.60
2024-04-30T17:47:30.534Z,24.30
2024-04-30T17:49:57.937Z,23.80
2024-04-30T17:52:25.302Z,23.40
2024-04-30T17:54:52.789Z,23.20
2024-04-30T17:57:20.271Z,22.90
2024-04-30T17:59:47.687Z,22.90
2024-04-30T18:02:15.093Z,22.90
2024-04-30T18:04:42.982Z,23.00
2024-04-30T18:07:10.387Z,23.00
2024-04-30T18:09:40.650Z,22.70
2024-04-30T18:12:08.279Z,22.50
2024-04-30T18:14:35.639Z,22.20
2024-04-30T18:17:04.558Z,22.10
2024-04-30T18:19:32.198Z,22.30
2024-04-30T18:21:59.599Z,22.40
2024-04-30T18:24:27.087Z,22.30
2024-04-30T18:26:54.465Z,22.10
2024-04-30T18:29:21.848Z,22.10
2024-04-30T18:31:55.840Z,22.10
2024-04-30T18:34:24.030Z,22.20
2024-04-30T18:36:51.628Z,21.90
2024-04-30T18:39:19.092Z,21.80
2024-04-30T18:41:46.530Z,21.60
2024-04-30T18:44:14.014Z,21.60
2024-04-30T18:46:41.416Z,21.90
2024-04-30T18:49:11.010Z,21.90
2024-04-30T18:51:41.476Z,21.70
2024-04-30T18:54:09.421Z,21.70
2024-04-30T18:56:40.599Z,21.60
2024-04-30T18:59:07.997Z,21.60
2024-04-30T19:01:36.774Z,21.80
2024-04-30T19:04:04.957Z,21.70
2024-04-30T19:06:32.758Z,22.20
2024-04-30T19:09:00.131Z,22.00
2024-04-30T19:11:27.586Z,21.90
2024-04-30T19:13:54.947Z,21.30
2024-04-30T19:16:22.308Z,21.00
2024-04-30T19:18:49.878Z,20.70
2024-04-30T19:21:18.533Z,21.20
2024-04-30T19:23:46.140Z,21.40
2024-04-30T19:26:17.725Z,21.60
2024-04-30T19:28:45.364Z,21.70
2024-04-30T19:31:21.078Z,22.10
2024-04-30T19:33:49.182Z,21.80
2024-04-30T19:36:21.065Z,21.60
2024-04-30T19:38:48.828Z,21.30
2024-04-30T19:41:16.923Z,21.10
2024-04-30T19:43:44.293Z,21.10
2024-04-30T19:46:13.358Z,21.00
2024-04-30T19:48:41.426Z,21.10
2024-04-30T19:51:08.965Z,21.10
2024-04-30T19:53:36.365Z,21.20
2024-04-30T19:56:03.781Z,21.60
2024-04-30T19:58:31.307Z,21.20
2024-04-30T20:00:58.760Z,21.80
2024-04-30T20:03:26.195Z,22.00
2024-04-30T20:05:53.620Z,21.60
2024-04-30T20:08:21.057Z,21.60
2024-04-30T20:10:48.401Z,21.90
2024-04-30T20:13:15.873Z,22.10
2024-04-30T20:15:43.251Z,22.10
2024-04-30T20:18:10.700Z,22.10
2024-04-30T20:20:38.117Z,21.70
2024-04-30T20:23:05.598Z,22.10
2024-04-30T20:25:32.971Z,21.80
2024-04-30T20:28:00.398Z,22.10
2024-04-30T20:30:27.827Z,22.10
2024-04-30T20:32:55.294Z,22.40
2024-04-30T20:35:22.641Z,22.50
2024-04-30T20:37:50.833Z,22.90
2024-04-30T20:40:18.190Z,22.00
2024-04-30T20:42:45.572Z,21.80
2024-04-30T20:45:13.136Z,21.70
2024-04-30T20:47:40.634Z,21.60
2024-04-30T20:50:08.203Z,21.60
2024-04-30T20:52:35.855Z,21.70
2024-04-30T20:55:03.298Z,21.70
2024-04-30T20:57:30.724Z,21.80
2024-04-30T20:59:58.123Z,21.80
2024-04-30T21:02:25.866Z,21.90
2024-04-30T21:04:53.318Z,21.90
2024-04-30T21:07:20.715Z,21.90
2024-04-30T21:09:48.056Z,22.40
2024-04-30T21:12:15.486Z,22.40
2024-04-30T21:14:42.855Z,22.60
2024-04-30T21:17:10.206Z,22.70
2024-04-30T21:19:37.606Z,22.20
2024-04-30T21:22:05.206Z,22.50
2024-04-30T21:24:32.739Z,22.20
2024-04-30T21:27:00.152Z,22.00
2024-04-30T21:29:27.530Z,21.90
2024-04-30T21:31:55.930Z,22.30
2024-04-30T21:34:23.461Z,22.40
2024-04-30T21:36:50.962Z,22.10
2024-04-30T21:39:18.378Z,22.20
2024-04-30T21:41:45.719Z,21.20
2024-04-30T21:44:13.111Z,21.50
2024-04-30T21:46:41.560Z,21.80
2024-04-30T21:49:09.165Z,21.70
2024-04-30T21:51:36.627Z,21.50
2024-04-30T21:54:04.695Z,21.70
2024-04-30T21:56:32.160Z,21.60
2024-04-30T21:58:59.494Z,21.40
2024-04-30T22:01:27.791Z,21.70
2024-04-30T22:03:55.414Z,21.60
2024-04-30T22:06:22.907Z,21.90
2024-04-30T22:08:51.556Z,21.70
2024-04-30T22:11:20.579Z,21.90
2024-04-30T22:13:47.999Z,22.00
2024-04-30T22:16:15.420Z,22.00
2024-04-30T22:18:42.837Z,21.60
2024-04-30T22:21:15.327Z,21.40
2024-04-30T22:23:44.639Z,21.50
2024-04-30T22:26:12.602Z,20.80
2024-04-30T22:28:40.039Z,20.40
2024-04-30T22:31:07.732Z,20.50
2024-04-30T22:33:35.234Z,20.70
2024-04-30T22:36:02.744Z,20.70
2024-04-30T22:38:30.106Z,21.10
2024-04-30T22:40:57.503Z,21.10
2024-04-30T22:43:24.928Z,21.00
2024-04-30T22:45:53.084Z,21.00
2024-04-30T22:48:20.800Z,20.70
2024-04-30T22:50:48.323Z,20.70
2024-04-30T22:53:15.712Z,20.70
2024-04-30T22:55:43.073Z,20.40
2024-04-30T22:58:10.501Z,20.70
2024-04-30T23:00:38.106Z,20.60
2024-04-30T23:03:05.772Z,20.90
2024-04-30T23:05:33.133Z,20.70
2024-04-30T23:08:00.491Z,20.30
2024-04-30T23:10:27.887Z,20.50
2024-04-30T23:12:55.287Z,20.50
2024-04-30T23:15:22.660Z,20.30
2024-04-30T23:17:50.594Z,20.50
2024-04-30T23:20:18.425Z,20.70
2024-04-30T23:22:45.873Z,20.40
2024-04-30T23:25:13.205Z,20.50
2024-04-30T23:27:40.653Z,20.40
2024-04-30T23:30:08.751Z,20.60
2024-04-30T23:32:36.126Z,20.80
2024-04-30T23:35:03.737Z,20.70
2024-04-30T23:37:31.110Z,20.70
2024-04-30T23:39:58.541Z,20.60
2024-04-30T23:42:26.801Z,20.80
2024-04-30T23:44:54.925Z,21.10
2024-04-30T23:47:22.260Z,21.10
2024-04-30T23:49:49.661Z,21.00
2024-04-30T23:52:16.995Z,21.10
2024-04-30T23:54:44.412Z,20.90
2024-04-30T23:57:11.780Z,20.70
2024-04-30T23:59:39.116Z,20.60
